Time;durP1;ratioP1;P1;durP2;ratioP2;P2;SDS_P1;SDS_P2;PMS_P1;PMS_P2;Temp;Humidity;BMP_temperature;BMP_pressure;BME280_temperature;BME280_humidity;BME280_pressure;Samples;Min_cycle;Max_cycle;Signal;HPM_P1;HPM_P2
2022/06/11 00:00:34;;;;;;;3.13;2.00;;;19.80;65.00;;;;;;5061329;28;20871;-66
2022/06/11 00:03:01;;;;;;;5.30;2.00;;;19.80;64.50;;;;;;5059405;28;20557;-67
2022/06/11 00:05:28;;;;;;;3.75;2.10;;;19.80;65.20;;;;;;5051829;28;20455;-67
2022/06/11 00:07:57;;;;;;;3.00;2.10;;;19.80;65.80;;;;;;5045152;28;20475;-66
2022/06/11 00:10:24;;;;;;;2.33;1.85;;;19.70;66.40;;;;;;5058539;28;20420;-66
2022/06/11 00:12:51;;;;;;;4.60;2.20;;;19.70;65.40;;;;;;5060532;28;20445;-67
2022/06/11 00:15:18;;;;;;;2.58;1.90;;;19.70;65.30;;;;;;5061807;28;20514;-66
2022/06/11 00:17:45;;;;;;;2.42;1.80;;;19.70;65.40;;;;;;5052474;28;20928;-67
2022/06/11 00:20:12;;;;;;;3.70;1.83;;;19.70;65.30;;;;;;5060668;28;20493;-67
2022/06/11 00:22:40;;;;;;;2.53;1.70;;;19.70;65.20;;;;;;5061825;28;20416;-67
2022/06/11 00:25:09;;;;;;;2.88;1.80;;;19.70;64.90;;;;;;5059807;28;20874;-67
2022/06/11 00:27:36;;;;;;;3.55;1.90;;;19.70;65.80;;;;;;5060750;28;20432;-67
2022/06/11 00:30:04;;;;;;;2.90;2.00;;;19.70;65.50;;;;;;5061986;28;20616;-67
2022/06/11 00:32:31;;;;;;;3.38;2.00;;;19.70;64.90;;;;;;5061745;28;20422;-66
2022/06/11 00:35:02;;;;;;;5.93;2.20;;;19.70;65.10;;;;;;5061004;28;20458;-66
2022/06/11 00:37:29;;;;;;;3.88;1.90;;;19.70;65.30;;;;;;5056330;28;20427;-68
2022/06/11 00:39:56;;;;;;;5.07;2.40;;;19.70;65.60;;;;;;5052408;28;20944;-68
2022/06/11 00:42:27;;;;;;;3.70;2.08;;;19.70;65.40;;;;;;5059933;28;20431;-68
2022/06/11 00:45:31;;;;;;;3.55;2.10;;;19.70;65.70;;;;;;5062329;28;20435;-67
2022/06/11 00:48:02;;;;;;;2.78;2.00;;;19.70;65.50;;;;;;5010348;28;21028;-68
2022/06/11 00:50:37;;;;;;;3.72;2.08;;;19.70;65.60;;;;;;5012575;28;20444;-68
2022/06/11 00:53:11;;;;;;;3.78;2.17;;;19.70;66.50;;;;;;5040911;28;20439;-68
2022/06/11 00:55:40;;;;;;;2.20;2.00;;;19.60;66.20;;;;;;5053014;28;20476;-68
2022/06/11 00:58:12;;;;;;;3.83;2.10;;;19.60;66.60;;;;;;5063336;28;20494;-68
2022/06/11 01:00:42;;;;;;;2.75;1.90;;;19.60;66.30;;;;;;5064886;28;20519;-65
2022/06/11 01:03:10;;;;;;;4.40;2.10;;;19.60;67.40;;;;;;5063680;28;20438;-66
2022/06/11 01:05:40;;;;;;;2.92;1.90;;;19.60;66.70;;;;;;5064615;28;20924;-67
2022/06/11 01:08:36;;;;;;;3.65;2.10;;;19.60;67.90;;;;;;5063875;28;20431;-66
2022/06/11 01:11:14;;;;;;;3.00;2.10;;;19.50;68.10;;;;;;5065533;28;20518;-66
2022/06/11 01:13:58;;;;;;;2.90;2.05;;;19.50;67.80;;;;;;5066654;28;20776;-66
2022/06/11 01:16:29;;;;;;;3.58;1.90;;;19.50;67.40;;;;;;5057782;28;20509;-67
2022/06/11 01:19:12;;;;;;;3.83;2.30;;;19.50;67.20;;;;;;5062523;28;20455;-67
2022/06/11 01:21:55;;;;;;;3.33;2.10;;;19.50;67.40;;;;;;5061681;28;20446;-67
2022/06/11 01:24:44;;;;;;;3.73;1.90;;;19.40;67.90;;;;;;5060596;28;20429;-67
2022/06/11 01:27:39;;;;;;;3.45;2.00;;;19.40;68.20;;;;;;5064087;28;20447;-67
2022/06/11 01:30:10;;;;;;;5.07;2.60;;;19.30;69.10;;;;;;5062221;28;20801;-67
2022/06/11 01:32:47;;;;;;;3.15;2.10;;;19.30;68.70;;;;;;5061972;28;20454;-66
2022/06/11 01:35:27;;;;;;;2.50;1.90;;;19.40;69.00;;;;;;5057352;28;20434;-66
2022/06/11 01:37:57;;;;;;;3.40;1.98;;;19.30;68.90;;;;;;5064974;28;20439;-66
2022/06/11 01:40:38;;;;;;;3.65;2.38;;;19.30;69.20;;;;;;5064088;28;20427;-66
2022/06/11 01:43:19;;;;;;;2.67;2.20;;;19.20;69.30;;;;;;5065533;28;20445;-67
2022/06/11 01:45:48;;;;;;;3.80;2.10;;;19.20;69.60;;;;;;5064071;28;20447;-66
2022/06/11 01:48:18;;;;;;;3.57;2.40;;;19.20;69.90;;;;;;5063912;28;20908;-67
2022/06/11 01:50:51;;;;;;;4.70;2.70;;;19.20;70.00;;;;;;5064110;28;20739;-67
2022/06/11 01:53:55;;;;;;;3.60;2.25;;;19.20;70.10;;;;;;5061142;28;20491;-66
2022/06/11 01:56:44;;;;;;;3.63;2.47;;;19.20;70.30;;;;;;5056901;28;20801;-66
2022/06/11 01:59:27;;;;;;;2.40;2.00;;;19.20;70.30;;;;;;5060072;28;20523;-68
2022/06/11 02:02:07;;;;;;;3.10;2.58;;;19.20;71.00;;;;;;5060820;28;20874;-68
2022/06/11 02:04:43;;;;;;;3.65;2.78;;;19.20;70.70;;;;;;5064837;28;20503;-66
2022/06/11 02:07:18;;;;;;;4.00;2.30;;;19.20;71.20;;;;;;5066402;28;20439;-66
2022/06/11 02:09:57;;;;;;;3.35;2.25;;;19.20;70.70;;;;;;5066449;28;20793;-67
2022/06/11 02:12:29;;;;;;;4.55;2.53;;;19.20;70.60;;;;;;5061071;28;20899;-66
2022/06/11 02:15:00;;;;;;;3.60;2.20;;;19.20;71.50;;;;;;5059161;28;20480;-67
2022/06/11 02:17:32;;;;;;;3.15;2.30;;;19.20;70.90;;;;;;5065153;28;20492;-66
2022/06/11 02:20:04;;;;;;;3.80;2.50;;;19.20;71.10;;;;;;5062920;28;20894;-66
2022/06/11 02:22:35;;;;;;;3.63;2.13;;;19.20;71.20;;;;;;5065181;28;20420;-68
2022/06/11 02:25:09;;;;;;;3.80;2.20;;;19.20;71.00;;;;;;5063956;28;20907;-66
2022/06/11 02:27:37;;;;;;;4.72;2.15;;;19.20;71.50;;;;;;5064709;28;20709;-68
2022/06/11 02:30:07;;;;;;;3.20;2.20;;;19.10;71.40;;;;;;5062515;28;20492;-66
2022/06/11 02:32:35;;;;;;;3.88;2.30;;;19.10;72.10;;;;;;5064211;28;20602;-69
2022/06/11 02:35:07;;;;;;;4.00;2.00;;;19.10;71.70;;;;;;5056257;28;20477;-65
2022/06/11 02:37:38;;;;;;;2.53;2.10;;;19.10;71.70;;;;;;5064229;28;20480;-67
2022/06/11 02:40:09;;;;;;;2.30;2.10;;;19.10;71.70;;;;;;5055280;28;20424;-66
2022/06/11 02:42:36;;;;;;;4.30;2.40;;;19.00;72.30;;;;;;5057978;28;20435;-67
2022/06/11 02:45:03;;;;;;;2.30;2.10;;;19.10;72.30;;;;;;5053850;28;20447;-67
2022/06/11 02:47:30;;;;;;;3.40;2.30;;;19.00;72.20;;;;;;5063821;28;20435;-68
2022/06/11 02:49:58;;;;;;;4.88;2.40;;;19.10;72.40;;;;;;5061692;28;20450;-66
2022/06/11 02:52:26;;;;;;;2.55;2.35;;;19.10;72.30;;;;;;5054303;28;20435;-67
2022/06/11 02:54:53;;;;;;;2.88;2.20;;;19.10;72.30;;;;;;5062849;28;20438;-67
2022/06/11 02:57:23;;;;;;;3.70;2.10;;;19.10;72.50;;;;;;5063618;28;20520;-67
2022/06/11 02:59:51;;;;;;;4.75;2.20;;;19.10;72.10;;;;;;5061182;28;20447;-68
2022/06/11 03:02:19;;;;;;;3.20;2.20;;;19.00;72.10;;;;;;5060910;28;20438;-65
2022/06/11 03:04:46;;;;;;;5.53;2.77;;;19.00;73.00;;;;;;5062905;28;20927;-66
2022/06/11 03:07:14;;;;;;;3.70;2.25;;;19.00;73.20;;;;;;5065125;28;20453;-68
2022/06/11 03:09:42;;;;;;;3.00;2.40;;;19.10;72.10;;;;;;5063897;28;20415;-67
2022/06/11 03:12:11;;;;;;;3.50;2.50;;;19.00;72.10;;;;;;5064145;28;20418;-68
2022/06/11 03:14:38;;;;;;;3.75;2.60;;;19.00;72.30;;;;;;5062053;28;20411;-68
2022/06/11 03:17:06;;;;;;;3.70;2.40;;;19.00;73.00;;;;;;5061803;28;20454;-68
2022/06/11 03:19:32;;;;;;;4.72;2.30;;;19.00;73.30;;;;;;5054597;28;20458;-68
2022/06/11 03:21:59;;;;;;;4.20;2.87;;;19.00;73.70;;;;;;5063725;28;20423;-68
2022/06/11 03:24:29;;;;;;;4.65;2.55;;;19.00;73.60;;;;;;5062887;28;20532;-68
2022/06/11 03:26:57;;;;;;;4.38;2.30;;;18.90;73.50;;;;;;5061900;28;20592;-68
2022/06/11 03:29:26;;;;;;;4.10;2.60;;;18.90;74.00;;;;;;5057428;28;20431;-68
2022/06/11 03:31:54;;;;;;;3.25;2.42;;;18.90;73.50;;;;;;5054785;28;20435;-68
2022/06/11 03:34:22;;;;;;;3.23;2.53;;;18.90;73.80;;;;;;5060920;28;20455;-68
2022/06/11 03:36:52;;;;;;;3.47;2.70;;;19.00;74.00;;;;;;5062062;28;20443;-68
2022/06/11 03:39:19;;;;;;;4.45;2.90;;;19.00;73.70;;;;;;5062365;28;20431;-67
2022/06/11 03:41:48;;;;;;;4.22;2.60;;;18.90;73.70;;;;;;5062190;28;20415;-68
2022/06/11 03:44:15;;;;;;;3.05;2.30;;;18.90;73.90;;;;;;5058269;28;20440;-67
2022/06/11 03:46:42;;;;;;;3.65;2.53;;;18.90;73.90;;;;;;5060681;28;20455;-68
2022/06/11 03:49:09;;;;;;;4.00;2.53;;;18.90;73.90;;;;;;5061171;28;20933;-68
2022/06/11 03:51:36;;;;;;;3.17;2.60;;;18.90;73.90;;;;;;5046625;28;20818;-68
2022/06/11 03:54:04;;;;;;;4.63;2.50;;;19.00;73.20;;;;;;5057084;28;20869;-66
2022/06/11 03:56:31;;;;;;;5.60;2.80;;;19.00;72.80;;;;;;5056671;28;20439;-67
2022/06/11 03:58:59;;;;;;;5.18;2.83;;;19.00;73.00;;;;;;5061747;28;20515;-68
2022/06/11 04:01:28;;;;;;;3.72;2.70;;;19.00;73.00;;;;;;5059843;28;20465;-68
2022/06/11 04:03:57;;;;;;;3.42;2.42;;;19.00;73.70;;;;;;5062200;28;20423;-67
2022/06/11 04:06:28;;;;;;;3.95;2.97;;;19.00;74.00;;;;;;5053023;28;20427;-68
2022/06/11 04:08:55;;;;;;;4.00;2.70;;;19.00;74.70;;;;;;5063089;28;20719;-68
2022/06/11 04:11:22;;;;;;;3.10;2.80;;;19.00;75.70;;;;;;5052280;28;20515;-67
2022/06/11 04:13:50;;;;;;;3.10;2.67;;;19.00;75.50;;;;;;5061950;28;20439;-67
2022/06/11 04:16:25;;;;;;;3.50;3.10;;;19.00;75.50;;;;;;5062259;28;20431;-68
2022/06/11 04:18:53;;;;;;;3.20;2.60;;;18.90;75.70;;;;;;5062673;28;20515;-68
2022/06/11 04:21:21;;;;;;;3.95;2.83;;;19.00;75.80;;;;;;5059124;28;20428;-67
2022/06/11 04:23:51;;;;;;;2.92;2.60;;;18.90;76.00;;;;;;5061647;28;20877;-68
2022/06/11 04:26:20;;;;;;;3.63;2.72;;;18.90;75.80;;;;;;5061551;28;20527;-67
2022/06/11 04:28:47;;;;;;;4.50;2.80;;;19.00;75.60;;;;;;5061666;28;20907;-68
2022/06/11 04:31:15;;;;;;;4.03;2.40;;;19.00;75.70;;;;;;5059125;28;20696;-68
2022/06/11 04:33:44;;;;;;;3.95;2.80;;;19.00;75.60;;;;;;5062567;28;20541;-67
2022/06/11 04:36:11;;;;;;;3.20;2.60;;;19.00;75.20;;;;;;5059462;28;20802;-68
2022/06/11 04:38:39;;;;;;;5.10;2.70;;;19.10;75.70;;;;;;5062748;28;20662;-68
2022/06/11 04:41:07;;;;;;;3.53;2.90;;;19.10;74.70;;;;;;5056713;28;20717;-68
2022/06/11 04:43:34;;;;;;;5.07;2.63;;;19.20;76.00;;;;;;5060870;28;20449;-68
2022/06/11 04:46:01;;;;;;;4.32;3.15;;;19.20;75.90;;;;;;5057509;28;20498;-68
2022/06/11 04:48:28;;;;;;;4.47;2.60;;;19.20;76.10;;;;;;5056151;28;20430;-68
2022/06/11 04:50:56;;;;;;;3.78;2.75;;;19.20;76.10;;;;;;5060873;28;20589;-67
2022/06/11 04:53:23;;;;;;;3.50;2.80;;;19.20;76.20;;;;;;5061937;28;20415;-68
2022/06/11 04:55:51;;;;;;;3.40;2.40;;;19.40;75.10;;;;;;5060603;28;20459;-68
2022/06/11 04:58:18;;;;;;;3.58;2.70;;;19.40;74.90;;;;;;5055181;28;20435;-68
2022/06/11 05:00:45;;;;;;;4.32;2.70;;;19.40;75.40;;;;;;5060472;28;20445;-67
2022/06/11 05:03:12;;;;;;;4.45;2.72;;;19.40;75.10;;;;;;5061774;28;20445;-68
2022/06/11 05:05:39;;;;;;;3.60;3.00;;;19.40;75.10;;;;;;5055247;28;20774;-68
2022/06/11 05:08:08;;;;;;;4.30;2.60;;;19.40;75.50;;;;;;5052369;28;20454;-66
2022/06/11 05:10:35;;;;;;;5.20;3.10;;;19.40;75.40;;;;;;5058359;28;20427;-68
2022/06/11 05:13:03;;;;;;;3.30;2.50;;;19.50;75.10;;;;;;5057983;28;20867;-64
2022/06/11 05:15:30;;;;;;;3.47;2.72;;;19.50;75.10;;;;;;5063084;28;20457;-66
2022/06/11 05:17:57;;;;;;;4.47;3.13;;;19.50;74.70;;;;;;5064869;28;20533;-67
2022/06/11 05:20:24;;;;;;;3.10;2.80;;;19.60;74.90;;;;;;5052153;28;20515;-67
2022/06/11 05:22:51;;;;;;;4.45;2.90;;;19.60;75.00;;;;;;5057301;28;20427;-66
2022/06/11 05:25:20;;;;;;;3.67;2.80;;;19.60;75.00;;;;;;5053287;28;20834;-66
2022/06/11 05:27:48;;;;;;;3.88;3.05;;;19.60;75.60;;;;;;5063611;28;20885;-68
2022/06/11 05:30:20;;;;;;;4.22;3.10;;;19.60;75.00;;;;;;5058625;28;20433;-68
2022/06/11 05:32:47;;;;;;;4.40;3.00;;;19.70;75.00;;;;;;5057503;28;20436;-68
2022/06/11 05:35:22;;;;;;;4.95;3.00;;;19.70;74.80;;;;;;5059268;28;20523;-68
2022/06/11 05:37:51;;;;;;;4.97;3.03;;;19.80;74.70;;;;;;5058895;28;20531;-68
2022/06/11 05:40:21;;;;;;;4.38;2.90;;;19.80;74.40;;;;;;5059815;28;20492;-68
2022/06/11 05:42:48;;;;;;;4.53;2.80;;;19.80;74.20;;;;;;5059894;28;20435;-68
2022/06/11 05:45:17;;;;;;;5.47;2.80;;;19.80;74.00;;;;;;5063104;28;20504;-68
2022/06/11 05:47:45;;;;;;;3.05;2.70;;;19.90;73.50;;;;;;5065829;28;20450;-67
2022/06/11 05:50:16;;;;;;;2.92;2.60;;;19.90;74.10;;;;;;5056917;28;20482;-67
2022/06/11 05:52:45;;;;;;;3.30;3.00;;;19.90;74.10;;;;;;5066102;28;20491;-68
2022/06/11 05:55:14;;;;;;;4.70;2.83;;;20.00;73.20;;;;;;5059653;28;20888;-67
2022/06/11 05:57:42;;;;;;;3.92;2.80;;;20.00;73.60;;;;;;5055885;28;20501;-68
2022/06/11 06:00:14;;;;;;;4.25;3.10;;;20.00;74.30;;;;;;5062908;28;20428;-67
2022/06/11 06:02:41;;;;;;;6.43;3.20;;;20.10;73.80;;;;;;5054298;28;20437;-68
2022/06/11 06:05:09;;;;;;;4.45;3.15;;;20.10;73.50;;;;;;5057316;28;20448;-71
2022/06/11 06:07:36;;;;;;;4.28;3.20;;;20.20;72.60;;;;;;5062832;28;20861;-70
2022/06/11 06:10:03;;;;;;;3.53;2.80;;;20.20;72.50;;;;;;5056560;28;20879;-69
2022/06/11 06:12:31;;;;;;;3.25;2.95;;;20.30;72.10;;;;;;5060877;28;20498;-67
2022/06/11 06:15:04;;;;;;;3.67;3.00;;;20.30;71.40;;;;;;5063181;28;20493;-67
2022/06/11 06:17:31;;;;;;;5.00;3.22;;;20.40;71.70;;;;;;5065466;28;20438;-67
2022/06/11 06:19:58;;;;;;;5.03;2.83;;;20.40;70.70;;;;;;5063593;28;20440;-65
2022/06/11 06:22:25;;;;;;;3.90;2.90;;;20.40;71.10;;;;;;5060777;28;20463;-67
2022/06/11 06:24:52;;;;;;;3.88;2.95;;;20.40;69.70;;;;;;5065132;28;20745;-66
2022/06/11 06:27:19;;;;;;;3.70;2.80;;;20.40;70.30;;;;;;5058359;28;20891;-67
2022/06/11 06:29:46;;;;;;;4.72;3.35;;;20.40;69.60;;;;;;5064593;28;20518;-67
2022/06/11 06:32:14;;;;;;;3.63;2.90;;;20.50;69.10;;;;;;5062826;28;20457;-69
2022/06/11 06:34:41;;;;;;;3.40;2.70;;;20.60;68.20;;;;;;5058953;28;20429;-69
2022/06/11 06:37:09;;;;;;;4.10;2.88;;;20.60;68.40;;;;;;5065941;28;20433;-70
2022/06/11 06:39:36;;;;;;;3.10;2.70;;;20.70;69.00;;;;;;5068176;28;20431;-70
2022/06/11 06:42:03;;;;;;;3.20;2.70;;;20.80;68.50;;;;;;5058317;28;20425;-70
2022/06/11 06:44:30;;;;;;;4.40;2.88;;;20.90;68.70;;;;;;5060907;28;20445;-71
2022/06/11 06:46:57;;;;;;;4.90;3.10;;;21.00;68.90;;;;;;5067596;28;20921;-71
2022/06/11 06:49:25;;;;;;;4.40;2.45;;;21.10;68.40;;;;;;5064064;28;20431;-69
2022/06/11 06:51:52;;;;;;;3.97;2.50;;;21.20;66.40;;;;;;5059898;28;20931;-69
2022/06/11 06:54:19;;;;;;;3.17;2.40;;;21.30;65.90;;;;;;5063536;28;20427;-69
2022/06/11 06:56:46;;;;;;;3.63;3.33;;;21.30;67.00;;;;;;5060313;28;20427;-68
2022/06/11 06:59:13;;;;;;;3.63;2.60;;;21.50;66.80;;;;;;5050436;28;20439;-68
2022/06/11 07:01:39;;;;;;;3.95;2.45;;;21.60;66.60;;;;;;5057174;28;20427;-68
2022/06/11 07:04:06;;;;;;;3.30;2.40;;;21.60;63.00;;;;;;5053940;28;20431;-69
2022/06/11 07:06:37;;;;;;;3.83;2.30;;;21.60;64.20;;;;;;5054190;28;20439;-68
2022/06/11 07:09:04;;;;;;;2.72;2.13;;;21.70;63.90;;;;;;5056559;28;20429;-69
2022/06/11 07:11:31;;;;;;;2.75;2.10;;;21.70;63.20;;;;;;5070545;28;20425;-69
2022/06/11 07:13:58;;;;;;;3.00;2.50;;;21.70;63.30;;;;;;5056305;28;20816;-68
2022/06/11 07:16:31;;;;;;;2.90;1.98;;;21.80;63.50;;;;;;5058292;28;20503;-72
2022/06/11 07:19:01;;;;;;;3.05;2.10;;;21.70;61.80;;;;;;5073145;28;20434;-71
2022/06/11 07:21:32;;;;;;;2.72;2.00;;;21.70;62.80;;;;;;5074771;28;20435;-72
2022/06/11 07:24:04;;;;;;;2.95;1.90;;;21.70;61.70;;;;;;5065593;28;20439;-72
2022/06/11 07:26:36;;;;;;;3.00;2.20;;;21.70;62.30;;;;;;5065864;28;20432;-72
2022/06/11 07:29:09;;;;;;;3.92;1.77;;;22.00;61.70;;;;;;5053895;28;20460;-71
2022/06/11 07:31:36;;;;;;;2.95;2.28;;;22.20;62.10;;;;;;5058830;28;21275;-70
2022/06/11 07:34:03;;;;;;;2.10;1.60;;;22.30;61.40;;;;;;5066353;28;20464;-72
2022/06/11 07:36:30;;;;;;;2.75;1.50;;;22.30;59.90;;;;;;5065593;28;20437;-71
2022/06/11 07:38:57;;;;;;;2.08;1.60;;;22.30;59.50;;;;;;5068336;28;20422;-70
2022/06/11 07:41:25;;;;;;;2.20;1.70;;;22.40;60.30;;;;;;5063862;28;20438;-70
2022/06/11 07:43:52;;;;;;;3.63;2.17;;;22.50;59.20;;;;;;5066678;28;20437;-70
2022/06/11 07:46:18;;;;;;;2.45;1.90;;;22.40;59.50;;;;;;5066185;28;20423;-70
2022/06/11 07:48:45;;;;;;;2.53;2.00;;;22.40;59.00;;;;;;5078182;28;20764;-70
2022/06/11 07:51:12;;;;;;;2.60;1.80;;;22.60;59.80;;;;;;5058842;28;20710;-70
2022/06/11 07:53:40;;;;;;;2.30;1.70;;;22.80;59.50;;;;;;5061523;28;20438;-69
2022/06/11 07:56:07;;;;;;;4.33;1.90;;;23.00;59.50;;;;;;5059762;28;20431;-69
2022/06/11 07:58:35;;;;;;;2.00;1.73;;;23.00;57.10;;;;;;5058405;28;20427;-69
2022/06/11 08:01:02;;;;;;;2.30;1.85;;;23.00;57.40;;;;;;5069940;28;20425;-69
2022/06/11 08:03:31;;;;;;;3.47;1.90;;;22.80;57.30;;;;;;5056120;28;20558;-71
2022/06/11 08:05:58;;;;;;;2.97;1.90;;;22.50;58.80;;;;;;5062414;28;20491;-69
2022/06/11 08:08:25;;;;;;;2.20;1.67;;;22.50;59.80;;;;;;5061423;28;20482;-70
2022/06/11 08:10:52;;;;;;;3.47;1.90;;;22.60;59.70;;;;;;5072039;28;20434;-70
2022/06/11 08:13:19;;;;;;;1.75;1.60;;;22.80;59.50;;;;;;5063472;28;20438;-71
2022/06/11 08:15:51;;;;;;;2.75;2.30;;;23.10;58.20;;;;;;5061508;28;20434;-71
2022/06/11 08:18:18;;;;;;;2.92;1.65;;;23.40;57.30;;;;;;5058870;28;20446;-71
2022/06/11 08:20:46;;;;;;;2.55;1.70;;;23.50;56.00;;;;;;5065190;28;20534;-69
2022/06/11 08:23:13;;;;;;;3.40;1.60;;;23.70;56.10;;;;;;5069536;28;20491;-69
2022/06/11 08:25:40;;;;;;;2.60;2.00;;;23.80;54.20;;;;;;5061312;28;20914;-70
2022/06/11 08:28:07;;;;;;;2.42;1.90;;;23.80;55.00;;;;;;5056278;28;20453;-69
2022/06/11 08:30:35;;;;;;;2.50;1.70;;;23.90;54.10;;;;;;5070025;28;20456;-69
2022/06/11 08:33:04;;;;;;;2.40;1.80;;;23.80;54.70;;;;;;5060378;28;20423;-69
2022/06/11 08:35:32;;;;;;;2.25;1.50;;;23.50;54.80;;;;;;5052385;28;20514;-69
2022/06/11 08:37:59;;;;;;;3.13;2.20;;;23.40;56.50;;;;;;5056521;28;20921;-67
2022/06/11 08:40:31;;;;;;;3.95;2.10;;;23.20;56.10;;;;;;5058473;28;21015;-68
2022/06/11 08:43:01;;;;;;;2.30;1.75;;;23.00;58.00;;;;;;5053424;28;20427;-69
2022/06/11 08:45:35;;;;;;;2.22;1.90;;;23.40;58.30;;;;;;5059245;28;20538;-69
2022/06/11 08:48:12;;;;;;;2.63;1.90;;;23.70;55.40;;;;;;5068392;28;20549;-70
2022/06/11 08:50:46;;;;;;;2.30;1.60;;;24.00;56.00;;;;;;5064117;28;20499;-68
2022/06/11 08:53:14;;;;;;;2.83;2.30;;;24.60;55.80;;;;;;5065912;28;20501;-68
2022/06/11 08:55:41;;;;;;;2.45;1.70;;;25.10;53.30;;;;;;5065889;28;20416;-69
2022/06/11 08:58:22;;;;;;;1.80;1.60;;;25.60;52.80;;;;;;5066221;28;20549;-65
2022/06/11 09:00:54;;;;;;;1.50;1.40;;;26.10;51.60;;;;;;5063516;28;20416;-69
2022/06/11 09:03:36;;;;;;;1.95;1.40;;;26.40;48.10;;;;;;5059729;28;20443;-69
2022/06/11 09:06:21;;;;;;;2.10;1.50;;;26.40;48.70;;;;;;5062601;28;20484;-68
2022/06/11 09:09:02;;;;;;;2.17;1.77;;;26.60;47.60;;;;;;5071007;28;20405;-68
2022/06/11 09:11:47;;;;;;;1.83;1.60;;;26.40;48.10;;;;;;5082584;28;20463;-70
2022/06/11 09:14:37;;;;;;;2.95;1.60;;;25.80;48.90;;;;;;5063666;28;20532;-70
2022/06/11 09:17:25;;;;;;;4.85;1.70;;;25.10;50.50;;;;;;5055970;28;20767;-70
2022/06/11 09:20:07;;;;;;;2.55;1.92;;;24.50;53.10;;;;;;5063913;28;20442;-70
2022/06/11 09:22:59;;;;;;;3.50;1.77;;;24.30;53.00;;;;;;5074817;28;20430;-70
2022/06/11 09:25:33;;;;;;;2.80;1.80;;;24.20;54.30;;;;;;5058346;28;20524;-69
2022/06/11 09:28:05;;;;;;;2.22;1.60;;;24.00;52.90;;;;;;5073891;28;20417;-69
2022/06/11 09:30:40;;;;;;;2.30;1.50;;;23.90;54.00;;;;;;5066206;28;20438;-70
2022/06/11 09:33:14;;;;;;;3.20;1.52;;;23.80;53.70;;;;;;5063331;28;20427;-68
2022/06/11 09:35:47;;;;;;;2.38;1.58;;;23.80;54.50;;;;;;5057346;28;20498;-68
2022/06/11 09:38:27;;;;;;;1.70;1.50;;;23.60;54.50;;;;;;5062685;28;20491;-69
2022/06/11 09:41:05;;;;;;;2.80;1.60;;;23.50;55.60;;;;;;5059599;28;20427;-69
2022/06/11 09:43:42;;;;;;;5.40;2.22;;;23.50;56.90;;;;;;5063275;28;21079;-69
2022/06/11 09:46:17;;;;;;;5.78;2.70;;;23.60;59.50;;;;;;5068076;28;20408;-73
2022/06/11 09:49:05;;;;;;;4.83;2.53;;;23.90;59.00;;;;;;5074998;28;20761;-72
2022/06/11 09:51:41;;;;;;;3.40;2.00;;;24.30;56.60;;;;;;5058098;28;20537;-71
2022/06/11 09:54:25;;;;;;;2.50;1.90;;;24.60;55.50;;;;;;5066931;28;20435;-69
2022/06/11 09:57:04;;;;;;;3.58;2.10;;;24.70;55.50;;;;;;5069238;28;20440;-69
2022/06/11 09:59:36;;;;;;;2.70;2.10;;;24.80;54.70;;;;;;5072458;28;20444;-69
2022/06/11 10:02:18;;;;;;;2.90;2.17;;;24.90;54.70;;;;;;5060748;28;20439;-70
2022/06/11 10:04:47;;;;;;;2.53;2.17;;;24.80;54.30;;;;;;5063286;28;20438;-69
2022/06/11 10:07:20;;;;;;;2.85;2.05;;;24.80;54.00;;;;;;5059057;28;20435;-68
2022/06/11 10:09:54;;;;;;;4.00;2.30;;;24.60;54.70;;;;;;5055310;28;20412;-68
2022/06/11 10:12:26;;;;;;;2.50;2.30;;;24.50;54.30;;;;;;5071837;28;20891;-69
2022/06/11 10:14:57;;;;;;;2.28;1.80;;;24.80;54.40;;;;;;5064847;28;20849;-69
2022/06/11 10:17:29;;;;;;;3.75;1.73;;;25.20;53.40;;;;;;5066049;28;20508;-68
2022/06/11 10:20:02;;;;;;;2.50;1.60;;;25.70;51.70;;;;;;5066846;28;20506;-70
2022/06/11 10:22:35;;;;;;;3.08;1.88;;;25.90;51.50;;;;;;5068340;28;20426;-69
2022/06/11 10:25:16;;;;;;;3.20;1.90;;;26.10;50.60;;;;;;5064325;28;20448;-69
2022/06/11 10:27:47;;;;;;;2.10;1.90;;;26.20;51.00;;;;;;5058564;28;20431;-70
2022/06/11 10:30:25;;;;;;;2.00;1.83;;;26.20;49.80;;;;;;5067670;28;20435;-68
2022/06/11 10:32:55;;;;;;;2.72;1.90;;;25.90;50.40;;;;;;5068620;28;20433;-66
2022/06/11 10:35:26;;;;;;;2.40;1.80;;;25.90;50.50;;;;;;5070177;28;20499;-69
2022/06/11 10:38:16;;;;;;;2.38;1.98;;;26.00;50.80;;;;;;5070560;28;20422;-68
2022/06/11 10:40:47;;;;;;;2.60;1.93;;;25.90;50.50;;;;;;5069349;28;20450;-69
2022/06/11 10:43:20;;;;;;;2.72;2.10;;;25.70;50.20;;;;;;5061696;28;20423;-68
2022/06/11 10:45:49;;;;;;;2.87;2.10;;;25.60;50.70;;;;;;5065796;28;20420;-70
2022/06/11 10:48:20;;;;;;;2.60;1.85;;;25.60;50.70;;;;;;5064978;28;20427;-68
2022/06/11 10:50:48;;;;;;;3.25;1.98;;;25.60;50.70;;;;;;5071026;28;20415;-68
2022/06/11 10:53:22;;;;;;;1.92;1.75;;;25.70;50.30;;;;;;5068360;28;20433;-73
2022/06/11 10:55:52;;;;;;;2.45;2.05;;;25.80;49.90;;;;;;5062390;28;20431;-68
2022/06/11 10:58:28;;;;;;;2.95;2.03;;;25.70;49.60;;;;;;5057858;28;20438;-70
2022/06/11 11:00:58;;;;;;;3.13;2.00;;;25.40;50.90;;;;;;5069717;28;20496;-70
2022/06/11 11:03:31;;;;;;;1.90;1.73;;;25.50;51.30;;;;;;5074069;28;20418;-70
2022/06/11 11:06:04;;;;;;;3.00;1.98;;;26.00;51.00;;;;;;5077989;28;20457;-71
2022/06/11 11:08:34;;;;;;;3.00;2.30;;;26.50;50.30;;;;;;5063835;28;20446;-70
2022/06/11 11:11:02;;;;;;;3.00;1.80;;;27.00;49.30;;;;;;5068764;28;20916;-70
2022/06/11 11:13:37;;;;;;;3.20;2.10;;;27.10;47.80;;;;;;5058581;28;20490;-71
2022/06/11 11:16:16;;;;;;;1.85;1.60;;;27.00;47.40;;;;;;5071234;28;20418;-71
2022/06/11 11:18:51;;;;;;;2.75;1.73;;;26.90;49.30;;;;;;5071181;28;20639;-70
2022/06/11 11:21:22;;;;;;;2.55;1.50;;;27.20;45.60;;;;;;5063646;28;20912;-70
2022/06/11 11:23:54;;;;;;;1.60;1.50;;;27.40;44.60;;;;;;5066042;28;20517;-70
2022/06/11 11:26:31;;;;;;;2.63;1.60;;;27.40;46.00;;;;;;5054669;28;20435;-70
2022/06/11 11:29:02;;;;;;;1.40;1.20;;;27.80;46.40;;;;;;5065201;28;20492;-70
2022/06/11 11:31:39;;;;;;;2.10;1.50;;;28.00;46.60;;;;;;5070874;28;20436;-70
2022/06/11 11:34:14;;;;;;;2.63;2.20;;;28.00;45.80;;;;;;5075611;28;20527;-70
2022/06/11 11:36:42;;;;;;;2.30;1.80;;;27.70;45.60;;;;;;5082360;28;20510;-70
2022/06/11 11:39:35;;;;;;;2.30;2.10;;;27.40;46.60;;;;;;5064540;28;20442;-71
2022/06/11 11:42:11;;;;;;;1.95;1.75;;;27.20;46.60;;;;;;5046553;28;20422;-71
2022/06/11 11:44:41;;;;;;;1.50;1.40;;;27.40;47.20;;;;;;5067352;28;20455;-70
2022/06/11 11:47:17;;;;;;;1.95;1.60;;;27.90;46.20;;;;;;5071827;28;20496;-71
2022/06/11 11:49:54;;;;;;;2.50;1.40;;;28.20;45.90;;;;;;5067050;28;20431;-70
2022/06/11 11:52:24;;;;;;;1.90;1.25;;;28.70;44.40;;;;;;5060539;28;20514;-74
2022/06/11 11:55:01;;;;;;;3.30;1.67;;;28.90;43.60;;;;;;5063429;28;20437;-70
2022/06/11 11:57:31;;;;;;;2.20;1.58;;;29.00;43.40;;;;;;5061688;28;21004;-71
2022/06/11 12:00:01;;;;;;;2.20;1.60;;;29.00;43.00;;;;;;5055596;28;20509;-68
2022/06/11 12:02:32;;;;;;;1.85;1.58;;;28.80;43.10;;;;;;5053449;28;20504;-69
2022/06/11 12:05:08;;;;;;;1.70;1.60;;;28.70;42.80;;;;;;5050608;28;20899;-68
2022/06/11 12:07:39;;;;;;;1.60;1.50;;;28.30;42.40;;;;;;5053677;28;21842;-68
2022/06/11 12:10:19;;;;;;;2.17;1.60;;;27.40;44.70;;;;;;5042451;28;20439;-67
2022/06/11 12:12:50;;;;;;;2.13;1.70;;;27.20;46.90;;;;;;5057616;28;20475;-67
2022/06/11 12:15:19;;;;;;;2.10;1.80;;;27.20;46.50;;;;;;5061406;28;20528;-70
2022/06/11 12:17:49;;;;;;;2.90;1.80;;;27.50;46.90;;;;;;5057865;28;20500;-69
2022/06/11 12:20:29;;;;;;;2.00;1.90;;;27.70;44.30;;;;;;5060590;28;20915;-71
2022/06/11 12:23:01;;;;;;;1.90;1.80;;;27.30;45.50;;;;;;5067646;28;20764;-70
2022/06/11 12:25:47;;;;;;;2.97;2.60;;;27.00;46.40;;;;;;5050801;28;20653;-71
2022/06/11 12:28:18;;;;;;;1.80;1.70;;;26.90;46.30;;;;;;5062906;28;20514;-69
2022/06/11 12:30:45;;;;;;;2.38;1.95;;;27.00;46.30;;;;;;5063578;28;20420;-69
2022/06/11 12:33:14;;;;;;;2.17;1.90;;;27.30;46.40;;;;;;5056273;28;20528;-72
2022/06/11 12:35:49;;;;;;;2.40;2.20;;;27.60;45.80;;;;;;5078421;22;20554;-66
2022/06/11 12:38:25;;;;;;;2.10;1.90;;;27.70;44.10;;;;;;5054321;28;20413;-65
2022/06/11 12:41:00;;;;;;;2.97;2.08;;;27.60;45.30;;;;;;5062453;28;20927;-65
2022/06/11 12:43:38;;;;;;;2.28;2.00;;;27.50;44.70;;;;;;5059840;28;20803;-65
2022/06/11 12:46:15;;;;;;;2.78;2.30;;;27.40;45.20;;;;;;5051550;28;20441;-65
2022/06/11 12:48:49;;;;;;;3.00;2.30;;;27.10;45.10;;;;;;5041314;28;21060;-65
2022/06/11 12:51:24;;;;;;;2.50;2.10;;;26.80;45.60;;;;;;5035271;28;20434;-65
2022/06/11 12:54:00;;;;;;;2.50;2.20;;;27.00;46.20;;;;;;5033013;28;20511;-66
2022/06/11 12:57:07;;;;;;;2.80;2.50;;;27.30;45.40;;;;;;5037248;28;20442;-67
2022/06/11 12:59:59;;;;;;;2.60;2.40;;;27.20;45.50;;;;;;5041830;28;20508;-68
2022/06/11 13:02:36;;;;;;;2.60;2.10;;;27.30;46.00;;;;;;5049662;28;20428;-66
2022/06/11 13:05:44;;;;;;;2.33;2.13;;;27.50;45.90;;;;;;5050438;28;20580;-68
2022/06/11 13:08:24;;;;;;;2.92;2.63;;;27.90;43.50;;;;;;4994849;28;20505;-66
2022/06/11 13:10:57;;;;;;;3.00;2.20;;;27.80;44.10;;;;;;5044366;28;20809;-67